createdAt,value
2023-01-10T00:00:24.807Z,83.32
2023-01-10T00:05:26.070Z,82.77
2023-01-10T00:10:27.346Z,82.75
2023-01-10T00:15:28.727Z,82.67
2023-01-10T00:20:30.090Z,82.71
2023-01-10T00:25:33.400Z,81.68
2023-01-10T00:30:35.312Z,82.03
2023-01-10T00:35:36.588Z,81.27
2023-01-10T00:40:37.901Z,80.09
2023-01-10T00:45:39.153Z,79.62
2023-01-10T00:50:40.394Z,79.78
2023-01-10T00:55:41.696Z,78.98
2023-01-10T01:00:43.019Z,77.26
2023-01-10T01:05:44.335Z,78.20
2023-01-10T01:10:45.663Z,78.25
2023-01-10T01:15:47.022Z,79.71
2023-01-10T01:20:48.339Z,79.53
2023-01-10T01:25:49.600Z,79.48
2023-01-10T01:30:50.909Z,79.37
2023-01-10T01:35:52.359Z,79.33
2023-01-10T01:40:53.603Z,79.64
2023-01-10T01:45:54.871Z,80.57
2023-01-10T01:50:56.244Z,80.88
2023-01-10T01:55:57.553Z,81.03
2023-01-10T02:00:58.949Z,80.53
2023-01-10T02:06:00.231Z,80.01
2023-01-10T02:11:01.439Z,80.79
2023-01-10T02:16:02.780Z,80.95
2023-01-10T02:21:04.656Z,80.18
2023-01-10T02:26:06.029Z,79.75
2023-01-10T02:31:07.312Z,80.54
2023-01-10T02:36:08.573Z,80.77
2023-01-10T02:41:09.848Z,80.63
2023-01-10T02:46:11.111Z,79.94
2023-01-10T02:51:12.378Z,80.51
2023-01-10T02:56:13.644Z,80.08
2023-01-10T03:01:15.747Z,80.12
2023-01-10T03:06:17.067Z,80.01
2023-01-10T03:11:38.408Z,79.48
2023-01-10T03:16:39.679Z,79.08
2023-01-10T03:21:41.014Z,80.10
2023-01-10T03:26:42.308Z,79.81
2023-01-10T03:31:43.636Z,79.77
2023-01-10T03:36:45.064Z,80.13
2023-01-10T03:41:46.346Z,80.43
2023-01-10T03:46:47.653Z,79.25
2023-01-10T03:51:48.928Z,78.06
2023-01-10T03:56:50.192Z,77.88
2023-01-10T04:01:51.539Z,78.50
2023-01-10T04:06:52.931Z,77.60
2023-01-10T04:11:54.159Z,77.76
2023-01-10T04:16:55.482Z,77.40
2023-01-10T04:21:56.987Z,78.01
2023-01-10T04:26:58.267Z,79.01
2023-01-10T04:31:59.545Z,80.19
2023-01-10T04:37:00.807Z,80.80
2023-01-10T04:42:02.148Z,80.46
2023-01-10T04:47:03.438Z,79.88
2023-01-10T04:52:04.732Z,80.32
2023-01-10T04:57:06.514Z,81.45
2023-01-10T05:02:07.846Z,81.92
2023-01-10T05:07:09.173Z,81.34
2023-01-10T05:12:10.459Z,80.74
2023-01-10T05:17:11.771Z,81.13
2023-01-10T05:22:13.225Z,81.94
2023-01-10T05:27:14.567Z,82.48
2023-01-10T05:32:16.095Z,82.50
2023-01-10T05:37:17.807Z,82.64
2023-01-10T05:42:19.100Z,84.09
2023-01-10T05:47:20.377Z,84.40
2023-01-10T05:52:21.788Z,84.27
2023-01-10T05:57:24.568Z,84.61
2023-01-10T06:02:26.672Z,83.33
2023-01-10T06:07:28.088Z,83.15
2023-01-10T06:12:29.401Z,83.66
2023-01-10T06:17:30.703Z,84.11
2023-01-10T06:22:31.985Z,83.79
2023-01-10T06:27:33.259Z,84.87
2023-01-10T06:32:34.493Z,84.78
2023-01-10T06:37:35.716Z,83.89
2023-01-10T06:42:36.979Z,84.94
2023-01-10T06:47:38.680Z,85.48
2023-01-10T06:52:39.905Z,85.67
2023-01-10T06:57:41.158Z,86.10
2023-01-10T07:02:42.416Z,84.93
2023-01-10T07:07:43.695Z,85.66
2023-01-10T07:12:44.977Z,86.96
2023-01-10T07:17:46.226Z,87.08
2023-01-10T07:22:47.446Z,86.86
2023-01-10T07:27:48.666Z,86.97
2023-01-10T07:32:49.920Z,86.24
2023-01-10T07:37:51.232Z,85.36
2023-01-10T07:42:52.448Z,85.35
2023-01-10T07:47:53.764Z,84.55
2023-01-10T07:52:55.077Z,84.57
2023-01-10T07:57:56.398Z,82.76
2023-01-10T08:02:57.841Z,81.92
2023-01-10T08:08:00.441Z,83.15
2023-01-10T08:13:17.025Z,83.70
2023-01-10T08:18:18.952Z,83.48
2023-01-10T08:23:20.261Z,84.87
2023-01-10T08:28:21.538Z,85.17
2023-01-10T08:33:23.692Z,84.88
2023-01-10T08:38:25.055Z,84.43
2023-01-10T08:43:26.335Z,84.39
2023-01-10T08:48:27.587Z,84.32
2023-01-10T08:53:32.015Z,86.82
2023-01-10T08:58:33.283Z,86.54
2023-01-10T09:03:34.507Z,85.98
2023-01-10T09:08:35.770Z,84.47
2023-01-10T09:13:39.662Z,84.18
2023-01-10T09:18:40.963Z,85.43
2023-01-10T09:23:43.611Z,84.74
2023-01-10T09:28:45.986Z,83.77
2023-01-10T09:33:49.802Z,82.72
2023-01-10T09:38:51.051Z,82.15
2023-01-10T09:43:52.271Z,83.23
2023-01-10T09:48:53.994Z,84.82
2023-01-10T09:53:57.809Z,85.82
2023-01-10T09:59:03.247Z,85.77
2023-01-10T10:04:04.528Z,85.56
2023-01-10T10:09:05.823Z,84.56
2023-01-10T10:14:07.072Z,86.96
2023-01-10T10:19:08.328Z,88.84
2023-01-10T10:24:09.744Z,88.09
2023-01-10T10:29:10.989Z,86.35
2023-01-10T10:34:12.367Z,84.80
2023-01-10T10:39:13.630Z,83.71
2023-01-10T10:44:14.885Z,86.00
2023-01-10T10:49:18.594Z,86.41
2023-01-10T10:54:19.967Z,85.01
2023-01-10T10:59:21.264Z,83.94
2023-01-10T11:04:22.637Z,84.32
2023-01-10T11:09:27.897Z,83.59
2023-01-10T11:14:29.192Z,83.79
2023-01-10T11:19:30.484Z,83.15
2023-01-10T11:24:31.960Z,83.68
2023-01-10T11:29:33.332Z,83.35
2023-01-10T11:34:34.594Z,82.49
2023-01-10T11:39:35.855Z,81.63
2023-01-10T11:44:37.086Z,80.06
2023-01-10T11:49:38.288Z,79.63
2023-01-10T11:54:39.521Z,79.61
2023-01-10T11:59:40.768Z,78.06
2023-01-10T12:04:42.233Z,77.33
2023-01-10T12:09:43.707Z,77.93
2023-01-10T12:14:44.987Z,76.02
2023-01-10T12:19:46.211Z,75.73
2023-01-10T12:24:47.443Z,75.81
2023-01-10T12:29:48.851Z,76.20
2023-01-10T12:34:50.153Z,74.73
2023-01-10T12:39:51.371Z,75.33
2023-01-10T12:44:52.886Z,75.43
2023-01-10T12:49:54.139Z,72.94
2023-01-10T12:54:55.375Z,71.80
2023-01-10T12:59:56.624Z,72.33
2023-01-10T13:04:57.927Z,71.43
2023-01-10T13:09:59.249Z,68.92
2023-01-10T13:15:00.510Z,69.50
2023-01-10T13:20:01.813Z,69.36
2023-01-10T13:25:03.494Z,69.83
2023-01-10T13:30:04.746Z,68.89
2023-01-10T13:35:06.788Z,69.40
2023-01-10T13:40:08.013Z,70.67
2023-01-10T13:45:12.029Z,67.97
2023-01-10T13:50:13.326Z,65.62
2023-01-10T13:55:14.536Z,66.38
2023-01-10T14:00:34.643Z,67.23
2023-01-10T14:05:35.962Z,63.82
2023-01-10T14:10:37.230Z,64.18
2023-01-10T14:15:38.559Z,62.52
2023-01-10T14:20:39.837Z,62.98
2023-01-10T14:25:41.077Z,62.83
2023-01-10T14:30:42.291Z,64.54
2023-01-10T14:35:43.547Z,64.91
2023-01-10T14:40:44.755Z,65.66
2023-01-10T14:45:46.074Z,66.86
2023-01-10T14:50:47.347Z,66.19
2023-01-10T14:55:51.262Z,71.43
2023-01-10T15:00:52.599Z,67.28
2023-01-10T15:05:53.919Z,66.71
2023-01-10T15:10:55.211Z,67.85
2023-01-10T15:15:56.619Z,68.63
2023-01-10T15:21:00.234Z,70.79
2023-01-10T15:26:01.503Z,70.76
2023-01-10T15:31:02.796Z,70.93
2023-01-10T15:36:04.270Z,71.03
2023-01-10T15:41:06.246Z,70.00
2023-01-10T15:46:08.424Z,69.78
2023-01-10T15:51:10.777Z,71.37
2023-01-10T15:56:12.236Z,71.05
2023-01-10T16:01:13.893Z,70.94
2023-01-10T16:06:15.288Z,70.76
2023-01-10T16:11:16.608Z,71.06
2023-01-10T16:16:17.969Z,70.31
2023-01-10T16:21:22.125Z,70.53
2023-01-10T16:26:23.622Z,70.96
2023-01-10T16:31:25.492Z,70.65
2023-01-10T16:36:28.634Z,71.29
2023-01-10T16:41:50.776Z,71.17
2023-01-10T16:46:53.649Z,71.41
2023-01-10T16:51:57.475Z,70.99
2023-01-10T16:56:59.146Z,71.04
2023-01-10T17:02:03.654Z,72.34
2023-01-10T17:07:10.811Z,72.60
2023-01-10T17:12:12.336Z,72.69
2023-01-10T17:17:13.678Z,71.82
2023-01-10T17:22:17.870Z,71.34
2023-01-10T17:27:21.754Z,71.43
2023-01-10T17:32:23.131Z,71.67
2023-01-10T17:37:24.422Z,72.42
2023-01-10T17:42:28.822Z,72.34
2023-01-10T17:47:30.391Z,72.22
2023-01-10T17:52:31.667Z,72.17
2023-01-10T17:57:38.427Z,72.33
2023-01-10T18:02:40.668Z,71.83
2023-01-10T18:07:42.071Z,72.11
2023-01-10T18:12:44.037Z,71.84
2023-01-10T18:17:45.735Z,72.35
2023-01-10T18:23:05.905Z,73.62
2023-01-10T18:28:07.323Z,74.06
2023-01-10T18:33:08.644Z,74.18
2023-01-10T18:38:09.964Z,74.09
2023-01-10T18:43:15.693Z,73.65
2023-01-10T18:48:18.131Z,73.55
2023-01-10T18:53:19.413Z,74.49
2023-01-10T18:58:20.684Z,73.73
2023-01-10T19:03:21.902Z,76.28
2023-01-10T19:08:23.122Z,77.18
2023-01-10T19:13:24.454Z,77.30
2023-01-10T19:18:25.697Z,77.14
2023-01-10T19:23:26.965Z,76.18
2023-01-10T19:28:40.037Z,76.09
2023-01-10T19:33:43.158Z,75.54
2023-01-10T19:38:44.440Z,76.62
2023-01-10T19:43:45.765Z,76.66
2023-01-10T19:48:47.054Z,76.04
2023-01-10T19:53:48.365Z,75.77
2023-01-10T19:58:49.725Z,75.76
2023-01-10T20:03:51.078Z,75.79
2023-01-10T20:08:54.173Z,75.61
2023-01-10T20:13:55.409Z,75.80
2023-01-10T20:19:00.139Z,76.08
2023-01-10T20:24:01.441Z,76.08
2023-01-10T20:29:04.560Z,75.88
2023-01-10T20:34:05.827Z,75.98
2023-01-10T20:39:07.109Z,76.07
2023-01-10T20:44:08.312Z,76.96
2023-01-10T20:49:10.495Z,78.63
2023-01-10T20:54:11.786Z,78.80
2023-01-10T20:59:13.064Z,78.51
2023-01-10T21:04:14.348Z,77.57
2023-01-10T21:09:16.656Z,77.64
2023-01-10T21:14:17.949Z,77.45
2023-01-10T21:19:20.480Z,77.83
2023-01-10T21:24:23.821Z,78.72
2023-01-10T21:29:25.115Z,78.92
2023-01-10T21:34:26.490Z,78.89
2023-01-10T21:39:27.756Z,78.80
2023-01-10T21:44:29.071Z,78.05
2023-01-10T21:49:30.645Z,78.37
2023-01-10T21:54:32.421Z,77.58
2023-01-10T21:59:34.238Z,76.85
2023-01-10T22:04:35.543Z,76.70
2023-01-10T22:09:36.805Z,76.91
2023-01-10T22:14:38.083Z,76.54
2023-01-10T22:19:39.365Z,76.40
2023-01-10T22:24:43.657Z,76.49
2023-01-10T22:29:45.730Z,76.21
2023-01-10T22:34:47.088Z,76.50
2023-01-10T22:39:48.796Z,78.56
2023-01-10T22:44:50.101Z,79.82
2023-01-10T22:49:51.518Z,79.85
2023-01-10T22:54:52.946Z,80.67
2023-01-10T22:59:54.389Z,80.84
2023-01-10T23:04:55.666Z,80.64
2023-01-10T23:09:57.004Z,80.39
2023-01-10T23:14:59.409Z,80.23
2023-01-10T23:20:00.696Z,79.13
2023-01-10T23:25:02.790Z,77.96
2023-01-10T23:30:04.211Z,77.95
2023-01-10T23:35:05.629Z,77.40
2023-01-10T23:40:06.971Z,76.86
2023-01-10T23:45:08.376Z,76.62
2023-01-10T23:50:09.704Z,76.22
2023-01-10T23:55:11.255Z,75.70
